Timeline UpdatesTrip UpdatesNews PostsPvt Posts♥♥Travel TipsAdmin PostsConv PostsFollowed PostsChat RequestsBlog PostsPNR Posts

Disclaimer
Search
 
 
Thu Nov 27, 2014 12:12:49 ISTHomeTrainsΣChainsAtlasPNRForumGalleryNewsFAQTripsMembersLoginFeedback
No Recent News for this Train
Other Trains in the News **new
Latest...
.
Mon Jul 28, 2014 (03:38PM)
⇐ Return Journey: Train# 59386-Slip

18238-Slip/Chhattisgarh Express Slip

Time-Table HAS CHANGED.
Sep 04 2014 (10:14PM)
Change Departure Station:
Change Arrival Station:
Post a Train Travel TipPost a Train Travel Tip **new
Post a Comment/Question/Picture/VideoPost a Comment/Question/Picture/Video
Pantry/Catering
✕ NO Pantry Car
✕ NO Catering
RSA - Rake Sharing
.
Rake/Coach Composition
Attached to 59385 Panchvalley Fast Passenger at Amla to run upto Chhindwara ; SP1(Itz attached at the end of the train)
Loco
ASR - NZM > TKD WDP4B/4D NZM-AMLA> AJNI WAP7 AMLA-CWA> RTM WDM3A
News    PNR    Forum    Time-Table    Availability    Fare Chart    Map    Arr/Dep History    Trips    Gallery    ΣChains    X/O    Timeline    
Travel Time: 12h 0m    20 halts    Distance: 474 km    Avg Speed: 39 km/hr
Type: Mail/Express
Zone: CR/Central
Departs @ 16:30 (Avg 50m late)
Platform# 2
SMTWTFS
Bina Junction/BINA 
Arrives @ 04:30 +1 night
Platform# 3
SMTWTFS
Chhindwara Junction/CWA 

20 halts. 67 intermediate Stations between Bina Junction and Chhindwara Junction

Show ALL intermediate Stations  Show Old Time-Table

#TrkCodeStation NameX/OArrivesAvgDepartsAvgHaltPFDay#KmSpeedElevZoneAddress
1/==/ASRAmritsar Junction (5)  -16:15+1721-1071.177233mNRAmritsar 143002, Punjab
2/==/JNLJandiala (2)X  16:30+2716:32+272m21-1051.980238mNRJandiala, Punjab
3/==/BEASBeas Junction (2)  16:50+3016:52+312m21-1028.061238mNRBeas, Punjab
4/==/KREKartarpur (2)X  17:13+2917:15+312m11-1006.668236mNRKartarpur, Punjab
5/==/JUCJalandhar City Junction (5)X  17:27 17:28+3317:35 17:34+368 6m21-991.929239mNRJalandhar 144001, Punjab
6/==/JRCJalandhar Cantt. Junction (3)X  17:48 17:44+3517:50 17:46+402m21-987.165239mNRNear Rama Mandi, Punjab
7/==/PGWPhagwara Junction (3)  18:05 18:01+4318:07 18:03+442m11-970.845245mNRPhagwara, Punjab
8/==/GRYGoraya (2)XO  18:21 18:16+4618:23 18:18+522m11-961.027240mNRGoraya, Punjab
9/==/PHRPhillaur Junction (3)X  18:46+3618:48+362m11-948.246246mNRPhillaur, Punjab
10/==/LDHLudhiana Junction (7)X  19:05+4019:15+4310m11-935.122246mNRLudhiana 141001, Punjab
11/==/SNLSanehwal (3)X  19:56+2419:58+272m21-920.055260mNRLudhiana, Punjab
12/==/DOADoraha (2)  20:06+3520:08+352m21-912.757261mNRDoraha, Punjab
13/==/CHAChawapail (2)  20:18+3620:20+372m21-903.366267mNRLudhiana, Punjab
14/==/KNNKhanna (3)  20:30+3920:32+392m21-892.354269mNRNH 1, Punjab
15/==/GVGMandi Gobindgarh (2)  20:41+3920:43+392m11-884.249268mNRMandi Gobindgarh, Punjab
16/==/SIRSirhind Junction (3)X  20:55+4020:57+402m21-874.465271mNRSirhind, Punjab
17/==/RPJRajpura Junction (3)X  21:20+4021:22+412m21-849.656272mNRNH-1., Punjab
18/==/UBCAmbala City (3)X  21:44+3721:46+372m11-829.121273mNRNH-1, Haryana
19/==/UMBAmbala Cantt. Junction (7)X  22:08+3322:20+3312m11-821.568278mNRAmbala 133001, Haryana
20/==/RAABarara (2)  22:42+3822:44+382m11-796.871279mNRBarara, Haryana
21/==/JUDWJagadhri Workshop (2)  23:02+3823:04+382m11-775.543280mNRRailway Workshop Road, Haryana
22/==/JUDYamunanagar-Jagadhri (3)  23:11+3923:13+392m21-770.535275mNRYamunanagar, Haryana
23/==/SRESaharanpur Junction (6)X  00:05+2300:15+2610m--2-740.468276mNRSaharanpur, Uttar Pradesh
24%--%DBDDeoband (2)  00:45+4100:47+422m--2-706.276258mNRSaharanpur, Uttar Pradesh
25%--%MOZMuzaffarnagar (3)  01:06+4501:08+452m--2-682.278247mNRMuzaffarNagar, Uttar Pradesh
26%--%KATKhatauli (2)  01:34 01:25+4801:36 01:27+512m--2-660.077239mNRKhatauli, Uttar Pradesh
27%--%DRLADaurala (1)  01:56 01:41+5601:58 01:43+562m12-642.051232mNRMeerut, Uttar Pradesh
28%--%MUTMeerut Cantt. (2)  02:09 01:56+5902:11 01:58+592m--2-630.929230mNRMeerut, Uttar Pradesh
29%--%MTCMeerut City Junction (6)  02:20 02:07+5802:25 02:12+575m22-626.669229mNRMeerut, Uttar Pradesh
30%==%MDNRModinagar (2)  02:39 02:29+1:0002:41 02:31+1:002m--2-607.160221mNRGhaziabad, Uttar Pradesh
31%==%GUHGuldhar (2)  02:55 02:49+5802:57 02:51+582m--2-589.016224mNRGhaziabad, Uttar Pradesh
32%==%GZBGhaziabad Junction (6)  03:28+3903:30+402m32-579.345217mNRGhaziabad, Uttar Pradesh
33/==/SBBSahibabad Junction (5)  03:38 03:39+4603:40 03:41+462m--2-572.633209mNRGhaziabad, Uttar Pradesh
34/==/NZMDelhi Hazrat Nizamuddin (7)X  04:15 04:10+4604:40+4325 30m22-556.660209mNRNew Delhi 110013, Delhi NCT
35/==/BVHBallabgarh (5)X  05:09+5005:11+502m42-527.742203mNRFaridabad, Haryana
36/==/PWLPalwal (8)X  05:41+3705:43+392m42-506.685200mNRPalwal, Haryana
37/==/KSVKosi Kalan (3)X  06:13+5006:15+512m22-464.156189mNCRKosi Kalan, Uttar Pradesh
38/==/CHJChata (4)X  06:26+5206:28+532m--2-453.869187mNCRChhata, Uttar Pradesh
39/==/MTJMathura Junction (10)X  06:55+5607:00+575m12-422.662179mNCRMathura, Uttar Pradesh
40/==/RKMRaja Ki Mandi (4)XO  07:56 07:48+1:1607:58 07:50+1:172m22-373.06170mNCRAgra, Uttar Pradesh
41/==/AGCAgra Cantt. (6)X  08:30+5308:40 08:38+5810 8m12-368.975174mNCRAgra, Uttar Pradesh
42/==/DHODholpur Junction (3)X  09:20+4509:22+582m32-316.362177mNCRDholpur, Rajasthan
43/==/MRAMorena (3)X  09:48+1:0109:50+1:052m12-289.572176mNCRMorena, Madhya Pradesh
44/==/BAOBanmorXO  10:04 10:06+1:0310:06 10:08+1:082m--2-270.231189mNCRGwalior, Madhya Pradesh
45/==/GWLGwalior Junction (4)XO  10:45+5710:50+575m12-250.963214mNCRGwalior, Madhya Pradesh
46/==/DBADabra (3)  11:28 11:30+5911:30 11:32+1:002m--2-208.663207mNCRDabra(District-Gwalior), Madhya Pradesh
47/==/SORSonagir (2)O  11:48 11:50+5911:50 11:52+1:002m--2-189.830211mNCRDatia, Madhya Pradesh
48/==/DAADatia (2)X  12:13 12:15+5412:15 12:17+572m--2-178.328264mNCRDatia, Madhya Pradesh
49/==/JHSJhansi Junction (7)  13:10+4013:20+4410m--2-153.267259mNCRJhansi, Uttar Pradesh
50/==/BABBabina (3)X  13:43+5213:45+532m12-127.752285mNCRBabina, Uttar Pradesh
51/==/BZYBasai (3)X  13:59+5514:01+592m12-115.659287mNCR07522289600(Gate ManMob. - 9452701575), Madhya Pradesh
52/==/TBTTalbahat (4)X  14:15 14:14+1:0114:17 14:16+1:022m22-102.8100314mNCRKhaniyadhana Station Rd, Madhya Pradesh
53/==/LARLalitpur (3)  14:46 14:40+1:0914:48 14:42+1:102m12-62.991373mNCRLalitpur, Uttar Pradesh
54/==/JLNJakhalaun (3) new halt!!  14:53+1:2114:55+1:232m--2-46.246394mNCRLalitpur(05176-272220), Uttar Pradesh
55/==/DUADhaura (3)XO  15:08 15:10+1:1715:10 15:12+1:132m--2-34.628407mNCRDhaura Tanda, Madhya Pradesh
56/==/BINABina Junction (5)»X  16:25+5016:30+505m220.069414mWCRJn Pt - KATNI/GUNA/ BPL/JHS, Madhya Pradesh
57/==/MABAMandi Bamora (3)XO  16:45+5416:47+552m2217.278413mWCRState Highway 14, Madhya Pradesh
58/==/BAQGanj Basoda (4)  17:09+5817:11+582m2245.784415mWCRVidisha, Madhya Pradesh
59/==/BHSVidisha (3)X  17:39+1:0617:41+1:072m2285.154433mWCRVidisha, Madhya Pradesh
60/==/BPLBhopal Junction (6)X  18:40+1:0718:45+1:085m12138.638497mWCRBhopal, Madhya Pradesh
61/==/HBJBhopal HabibGanj (5)  18:55+1:1218:57+1:132m--2144.843496mWCRHabibGanj, Madhya Pradesh
62/==/HBDHoshangabad (2)XO  20:30+1:0320:32+1:032m--2212.233308mWCRHoshangabad, Madhya Pradesh
63/==/ETItarsi Junction (7)X  21:10 21:05+5321:15+535 10m--2230.368329mWCRItarsi 461111, Madhya Pradesh
64/==/GDYAGhoradongri (3)X  22:17+1:0922:19+1:092m--2300.749407mCRBetul, Madhya Pradesh
65/==/BZUBetul (3)  23:03+1:1023:05+1:112m--2336.646644mCRBetul, Madhya Pradesh
66/==/AMLAAmla Junction (5)23:35+1:0501:10+2195m--2359.539733mCRAmla Distt. Betul, Madhya Pradesh
67|--|JMVJambara (1)  01:31-01:33-2m13373.250706mCRAmla, Madhya Pradesh
68|--|BCRDBarchi Road (1)O  01:41-01:43-2m13379.865713mCRState Highway 26, Madhya Pradesh
69|--|BXYBordhal (1)O  01:49-01:51-2m13386.346710mCRAmla, Madhya Pradesh
70|--|NVGNavegaon (1)  02:12-02:14-2m13402.256794mCRNayagaon, Madhya Pradesh
71|--|HRGHirdagarh (2)O  02:30-02:32-2m--3417.147721mCRDongar Parasia, Madhya Pradesh
72|--|JNOJunnor Deo (2)O  02:45-02:47-2m--3427.236762mCRDongar Parasia, Madhya Pradesh
73|--|IKRIklehra (1)  03:08-03:10-2m13439.842771mCRDongar Parasia, Madhya Pradesh
74|--|PUXParasia (2)O  03:19-03:21-2m--3446.0150775mCRDongar Parasia, Madhya Pradesh
75|--|KUXKhirsadoh Junction (2)  03:24-03:26-2m--3453.521769mCRChhindwara, Madhya Pradesh
76|--|GNWGangiwara (1)  03:48-03:50-2m13461.120714mCRChhindwara, Madhya Pradesh
77|--|CWAChhindwara Junction (3)•  04:30--33474.4-675mSECRNH 69A Seoni Road, Madhya Pradesh
Scroll to Top
Scroll to Bottom